KCDJ

Chillicothe Agri-Science Center Airport

Chillicothe, Missouri, USA
METAR KCDJ 200552Z AUTO 35004KT 01/00 A2983 RMK AO1 SLP104 60003 T00110000 10028 20011 402000011 58003 $
Observed Flight Rules
Feb-20 @ 05:52 UTC (an hour ago)
Wind
350° at 4 knots
Temperatures Readings
Current 1°C / 34°F
Dewpoint 0°C / 32°F
Humidity 93%
Altimeter 29.83" Hg
Pressure 1010.4 hPa
Elevation 234
METAR KCDJ 200552Z AUTO 35004KT 01/00 A2983 RMK AO1 SLP104 60003 T00110000 10028 20011 402000011 58003 $
Observed Flight Rules
Feb-20 @ 05:52 UTC
(an hour ago)
Wind
350° at 4 knots
Temperature Dewpoint
1°C / 34°F 0°C / 32°F
Humidity Altimeter Pressure
93% 29.83" Hg 1010.4 hPa